Explora — IXWQ — position and weather

sailwx.info

Track history (hours):
 
Tides and Currents Weather Stations Pressure Air Temp Water Temp Dewpoint Dewpoint Depression Visibility Wind Speed Wind Dir Waves Ship Positions

Oceanographic research ship Explora (Italy)

Detailed information on ship capabilities available from University of Delaware's Ocean Information Center.

Last reported at 2015-May-27 18:33 UTC. Time now 2015-May-30 02:31 UTC.
Position N 31°14' E 029°38'.

Length 73 m; draft 5.5 m.

Type: Dredging. MMSI: 247028700.

Date/timePositionNaut miles runAvg speedWind from/ knotsBaromVisibWave heightAir tempDewpointWater temp
2015-May-27 18:33N 31°14' E 029°38'4 3.6
2015-May-27 17:24N 31°15' E 029°34'14 1.2
2015-May-27 06:30N 31°23' E 029°21'7 6.6
2015-May-27 05:31N 31°19' E 029°27'0 0.1
2015-May-27 04:33N 31°19' E 029°27'0 0.3
2015-May-27 03:17N 31°19' E 029°27'0 0.3
2015-May-27 02:33N 31°19' E 029°27'1 0.5
2015-May-27 01:20N 31°19' E 029°27'0 0.1
2015-May-27 00:33N 31°19' E 029°27'11 2.7
2015-May-26 20:33N 31°14' E 029°38'2 1.9
2015-May-26 19:20N 31°12' E 029°40'3 3.4
2015-May-26 18:33N 31°12' E 029°37'2 2.0
2015-May-26 17:33N 31°13' E 029°39'7 5.1
2015-May-26 16:16N 31°07' E 029°42'7 8.9
2015-May-26 15:32N 31°13' E 029°40'12 8.6
2015-May-26 14:07N 31°18' E 029°53'610.1
2015-May-26 13:33N 31°22' E 029°58'6 4.9
2015-May-26 12:23N 31°19' E 030°05'0 0.1
2015-May-26 11:31N 31°19' E 030°05'0 0.0
2015-May-26 10:25N 31°19' E 030°05'0 0.0
2015-May-26 09:13N 31°19' E 030°05'0 0.0
2015-May-26 06:31N 31°19' E 030°05'0 0.0
2015-May-26 02:06N 31°19' E 030°05'0 0.0
2015-May-25 21:18N 31°19' E 030°05'0 0.0
2015-May-25 20:15N 31°19' E 030°05'0 0.0
2015-May-25 17:09N 31°19' E 030°05'0 0.0
2015-May-25 16:27N 31°19' E 030°05'0 0.0
2015-May-25 14:33N 31°19' E 030°05'0 0.0
2015-May-25 13:33N 31°19' E 030°05'4 1.6
2015-May-25 11:08N 31°23' E 030°06'5 7.4
2015-May-25 10:29N 31°25' E 030°01'7 7.9
2015-May-25 09:33N 31°29' E 029°53'9 8.8
2015-May-25 08:33N 31°34' E 029°45'1111.0
2015-May-25 07:33N 31°40' E 029°34'1110.9
2015-May-25 06:33N 31°46' E 029°23'1110.8
2015-May-25 05:33N 31°52' E 029°13'1110.8
2015-May-25 04:33N 31°58' E 029°02'1111.0
2015-May-25 03:33N 32°04' E 028°51'1111.1
2015-May-25 02:33N 32°10' E 028°40'23910.8
2015-May-24 04:24N 34°23' E 024°43'  
2015-May-21 08:20N 39°05' E 017°08'0 0.0
2015-May-21 07:32N 39°05' E 017°08'0 0.0
2015-May-21 05:05N 39°05' E 017°08'0 0.0
2015-May-21 04:32N 39°05' E 017°08'0 0.0
2015-May-21 03:11N 39°05' E 017°08'0 0.0
2015-May-20 21:29N 39°05' E 017°08'0 0.0
2015-May-20 20:28N 39°05' E 017°08'0 0.0
2015-May-20 17:07N 39°05' E 017°08'  
Track history (hours):
 
Tides and Currents Weather Stations Pressure Air Temp Water Temp Dewpoint Dewpoint Depression Visibility Wind Speed Wind Dir Waves Ship Positions

Oceanographic research ship Explora (Italy)

Detailed information on ship capabilities available from University of Delaware's Ocean Information Center.

Last reported at 2015-May-27 18:33 UTC. Time now 2015-May-30 02:31 UTC.
Position N 31°14' E 029°38'.

Length 73 m; draft 5.5 m.

Type: Dredging. MMSI: 247028700.

Date/timePositionNaut miles runAvg speedWind from/ knotsBaromVisibWave heightAir tempDewpointWater temp
2015-May-27 18:33N 31°14' E 029°38'4 3.6
2015-May-27 17:24N 31°15' E 029°34'14 1.2
2015-May-27 06:30N 31°23' E 029°21'7 6.6
2015-May-27 05:31N 31°19' E 029°27'0 0.1
2015-May-27 04:33N 31°19' E 029°27'0 0.3
2015-May-27 03:17N 31°19' E 029°27'0 0.3
2015-May-27 02:33N 31°19' E 029°27'1 0.5
2015-May-27 01:20N 31°19' E 029°27'0 0.1
2015-May-27 00:33N 31°19' E 029°27'11 2.7
2015-May-26 20:33N 31°14' E 029°38'2 1.9
2015-May-26 19:20N 31°12' E 029°40'3 3.4
2015-May-26 18:33N 31°12' E 029°37'2 2.0
2015-May-26 17:33N 31°13' E 029°39'7 5.1
2015-May-26 16:16N 31°07' E 029°42'7 8.9
2015-May-26 15:32N 31°13' E 029°40'12 8.6
2015-May-26 14:07N 31°18' E 029°53'610.1
2015-May-26 13:33N 31°22' E 029°58'6 4.9
2015-May-26 12:23N 31°19' E 030°05'0 0.1
2015-May-26 11:31N 31°19' E 030°05'0 0.0
2015-May-26 10:25N 31°19' E 030°05'0 0.0
2015-May-26 09:13N 31°19' E 030°05'0 0.0
2015-May-26 06:31N 31°19' E 030°05'0 0.0
2015-May-26 02:06N 31°19' E 030°05'0 0.0
2015-May-25 21:18N 31°19' E 030°05'0 0.0
2015-May-25 20:15N 31°19' E 030°05'0 0.0
2015-May-25 17:09N 31°19' E 030°05'0 0.0
2015-May-25 16:27N 31°19' E 030°05'0 0.0
2015-May-25 14:33N 31°19' E 030°05'0 0.0
2015-May-25 13:33N 31°19' E 030°05'4 1.6
2015-May-25 11:08N 31°23' E 030°06'5 7.4
2015-May-25 10:29N 31°25' E 030°01'7 7.9
2015-May-25 09:33N 31°29' E 029°53'9 8.8
2015-May-25 08:33N 31°34' E 029°45'1111.0
2015-May-25 07:33N 31°40' E 029°34'1110.9
2015-May-25 06:33N 31°46' E 029°23'1110.8
2015-May-25 05:33N 31°52' E 029°13'1110.8
2015-May-25 04:33N 31°58' E 029°02'1111.0
2015-May-25 03:33N 32°04' E 028°51'1111.1
2015-May-25 02:33N 32°10' E 028°40'23910.8
2015-May-24 04:24N 34°23' E 024°43'  
2015-May-21 08:20N 39°05' E 017°08'0 0.0
2015-May-21 07:32N 39°05' E 017°08'0 0.0
2015-May-21 05:05N 39°05' E 017°08'0 0.0
2015-May-21 04:32N 39°05' E 017°08'0 0.0
2015-May-21 03:11N 39°05' E 017°08'0 0.0
2015-May-20 21:29N 39°05' E 017°08'0 0.0
2015-May-20 20:28N 39°05' E 017°08'0 0.0
2015-May-20 17:07N 39°05' E 017°08'  

Dump ship's entire track history